createdAt,value
2018-05-31T00:04:59.923Z,69
2018-05-31T00:09:59.728Z,69
2018-05-31T00:14:59.833Z,70
2018-05-31T00:19:59.689Z,70
2018-05-31T00:24:59.783Z,70
2018-05-31T00:29:59.804Z,70
2018-05-31T00:34:59.812Z,70
2018-05-31T00:39:59.772Z,70
2018-05-31T00:44:59.877Z,70
2018-05-31T00:49:59.598Z,70
2018-05-31T00:54:59.685Z,71
2018-05-31T00:59:59.858Z,71
2018-05-31T01:04:59.617Z,71
2018-05-31T01:09:59.872Z,71
2018-05-31T01:14:59.700Z,71
2018-05-31T01:19:59.478Z,71
2018-05-31T01:24:59.783Z,71
2018-05-31T01:29:59.497Z,71
2018-05-31T01:34:59.677Z,71
2018-05-31T01:39:59.592Z,71
2018-05-31T01:44:59.524Z,71
2018-05-31T01:49:59.781Z,71
2018-05-31T01:54:59.542Z,72
2018-05-31T01:59:59.646Z,72
2018-05-31T02:04:59.600Z,72
2018-05-31T02:09:59.488Z,72
2018-05-31T02:14:59.400Z,72
2018-05-31T02:19:59.652Z,72
2018-05-31T02:24:59.388Z,72
2018-05-31T02:29:59.538Z,72
2018-05-31T02:34:59.374Z,72
2018-05-31T02:39:59.547Z,73
2018-05-31T02:44:59.567Z,73
2018-05-31T02:49:59.487Z,73
2018-05-31T02:54:59.684Z,73
2018-05-31T02:59:59.522Z,73
2018-05-31T03:04:59.623Z,73
2018-05-31T03:09:59.453Z,73
2018-05-31T03:14:59.592Z,73
2018-05-31T03:19:59.609Z,73
2018-05-31T03:24:59.482Z,73
2018-05-31T03:29:59.724Z,73
2018-05-31T03:34:59.459Z,73
2018-05-31T03:39:59.303Z,73
2018-05-31T03:44:59.531Z,73
2018-05-31T03:49:59.428Z,73
2018-05-31T03:54:59.332Z,73
2018-05-31T03:59:59.439Z,73
2018-05-31T04:04:59.276Z,73
2018-05-31T04:09:59.312Z,73
2018-05-31T04:14:59.372Z,73
2018-05-31T04:19:59.311Z,73
2018-05-31T04:24:59.287Z,73
2018-05-31T04:29:59.680Z,73
2018-05-31T04:34:59.339Z,73
2018-05-31T04:39:59.575Z,73
2018-05-31T04:44:59.597Z,74
2018-05-31T04:49:59.252Z,74
2018-05-31T04:54:59.233Z,74
2018-05-31T04:59:59.227Z,74
2018-05-31T05:04:59.307Z,74
2018-05-31T05:09:59.345Z,74
2018-05-31T05:14:59.323Z,74
2018-05-31T05:19:59.184Z,74
2018-05-31T05:24:59.222Z,74
2018-05-31T05:29:59.292Z,74
2018-05-31T05:34:59.409Z,74
2018-05-31T05:39:59.100Z,74
2018-05-31T05:44:59.492Z,74
2018-05-31T05:49:59.169Z,74
2018-05-31T05:54:59.189Z,74
2018-05-31T05:59:59.120Z,74
2018-05-31T06:04:59.057Z,74
2018-05-31T06:09:59.294Z,74
2018-05-31T06:14:59.487Z,74
2018-05-31T06:19:59.230Z,74
2018-05-31T06:24:59.300Z,74
2018-05-31T06:29:59.332Z,74
2018-05-31T06:34:59.156Z,74
2018-05-31T06:39:59.108Z,74
2018-05-31T06:44:59.054Z,74
2018-05-31T06:49:58.986Z,74
2018-05-31T06:54:58.969Z,74
2018-05-31T06:59:59.253Z,74
2018-05-31T07:04:59.237Z,74
2018-05-31T07:09:59.147Z,74
2018-05-31T07:14:58.945Z,74
2018-05-31T07:19:59.026Z,74
2018-05-31T07:24:59.165Z,74
2018-05-31T07:29:59.250Z,74
2018-05-31T07:34:58.914Z,74
2018-05-31T07:39:59.172Z,74
2018-05-31T07:44:58.890Z,63
2018-05-31T07:49:59.255Z,63
2018-05-31T07:54:58.822Z,63
2018-05-31T07:59:59.213Z,64
2018-05-31T08:04:58.851Z,64
2018-05-31T08:09:59.278Z,64
2018-05-31T08:14:58.952Z,64
2018-05-31T08:19:58.938Z,64
2018-05-31T08:24:59.055Z,64
2018-05-31T08:29:59.147Z,64
2018-05-31T08:34:58.885Z,64
2018-05-31T08:39:58.867Z,69
2018-05-31T08:44:58.960Z,69
2018-05-31T08:49:58.921Z,69
2018-05-31T08:54:58.872Z,69
2018-05-31T08:59:58.837Z,67
2018-05-31T09:04:58.951Z,67
2018-05-31T09:09:58.845Z,68
2018-05-31T09:14:58.979Z,68
2018-05-31T09:19:59.025Z,68
2018-05-31T09:24:58.982Z,67
2018-05-31T09:29:58.920Z,66
2018-05-31T09:34:58.762Z,65
2018-05-31T09:39:59.023Z,64
2018-05-31T09:44:59.054Z,64
2018-05-31T09:49:58.768Z,64
2018-05-31T09:54:58.782Z,64
2018-05-31T09:59:59.025Z,64
2018-05-31T10:04:58.827Z,64
2018-05-31T10:09:58.909Z,64
2018-05-31T10:14:58.799Z,64
2018-05-31T10:19:58.972Z,64
2018-05-31T10:24:59.121Z,64
2018-05-31T10:29:58.935Z,64
2018-05-31T10:34:58.833Z,64
2018-05-31T10:39:58.925Z,64
2018-05-31T10:44:58.871Z,64
2018-05-31T10:49:58.903Z,66
2018-05-31T10:54:58.919Z,65
2018-05-31T10:59:58.681Z,65
2018-05-31T11:04:58.843Z,65
2018-05-31T11:09:58.904Z,65
2018-05-31T11:14:58.824Z,65
2018-05-31T11:19:58.718Z,63
2018-05-31T11:24:58.749Z,63
2018-05-31T11:29:58.768Z,63
2018-05-31T11:34:58.873Z,63
2018-05-31T11:39:58.930Z,64
2018-05-31T11:44:58.574Z,64
2018-05-31T11:49:58.681Z,64
2018-05-31T11:54:58.836Z,65
2018-05-31T11:59:58.501Z,66
2018-05-31T12:04:58.681Z,66
2018-05-31T12:09:58.731Z,66
2018-05-31T12:14:58.665Z,65
2018-05-31T12:19:58.869Z,65
2018-05-31T12:24:58.747Z,64
2018-05-31T12:29:58.619Z,63
2018-05-31T12:34:58.576Z,63
2018-05-31T12:39:58.595Z,63
2018-05-31T12:44:58.598Z,63
2018-05-31T12:49:58.572Z,63
2018-05-31T12:54:58.648Z,63
2018-05-31T12:59:58.578Z,63
2018-05-31T13:04:58.658Z,63
2018-05-31T13:09:58.601Z,63
2018-05-31T13:14:58.497Z,57
2018-05-31T13:19:58.557Z,57
2018-05-31T13:24:58.429Z,57
2018-05-31T13:29:58.442Z,57
2018-05-31T13:34:58.781Z,53
2018-05-31T13:39:58.554Z,53
2018-05-31T13:44:58.512Z,53
2018-05-31T13:49:58.385Z,53
2018-05-31T13:54:58.639Z,53
2018-05-31T13:59:58.593Z,49
2018-05-31T14:04:58.437Z,49
2018-05-31T14:09:58.461Z,49
2018-05-31T14:14:58.635Z,49
2018-05-31T14:19:58.568Z,47
2018-05-31T14:24:58.352Z,47
2018-05-31T14:29:58.683Z,47
2018-05-31T14:34:58.539Z,47
2018-05-31T14:39:58.582Z,47
2018-05-31T14:44:58.667Z,47
2018-05-31T14:49:58.547Z,47
2018-05-31T14:54:58.416Z,47
2018-05-31T14:59:58.517Z,47
2018-05-31T15:04:58.616Z,47
2018-05-31T15:09:58.438Z,47
2018-05-31T15:14:58.330Z,47
2018-05-31T15:19:58.244Z,47
2018-05-31T15:24:58.230Z,44
2018-05-31T15:29:58.208Z,45
2018-05-31T15:34:58.606Z,45
2018-05-31T15:39:58.237Z,45
2018-05-31T15:44:58.348Z,45
2018-05-31T15:49:58.278Z,46
2018-05-31T15:54:58.301Z,46
2018-05-31T15:59:58.201Z,46
2018-05-31T16:04:58.462Z,46
2018-05-31T16:09:58.513Z,47
2018-05-31T16:14:58.483Z,46
2018-05-31T16:19:58.341Z,46
2018-05-31T16:24:58.428Z,45
2018-05-31T16:29:58.504Z,45
2018-05-31T16:34:58.559Z,45
2018-05-31T16:39:58.289Z,45
2018-05-31T16:44:58.297Z,45
2018-05-31T16:49:58.266Z,45
2018-05-31T16:54:58.059Z,45
2018-05-31T16:59:58.147Z,45
2018-05-31T17:04:58.326Z,45
2018-05-31T17:09:58.376Z,45
2018-05-31T17:14:58.432Z,45
2018-05-31T17:19:58.263Z,45
2018-05-31T17:24:58.072Z,45
2018-05-31T17:29:58.375Z,45
2018-05-31T17:34:58.301Z,45
2018-05-31T17:39:58.095Z,45
2018-05-31T17:44:58.261Z,45
2018-05-31T17:49:58.051Z,45
2018-05-31T17:54:58.386Z,45
2018-05-31T17:59:58.291Z,45
2018-05-31T18:04:58.229Z,45
2018-05-31T18:09:58.325Z,45
2018-05-31T18:14:58.347Z,45
2018-05-31T18:19:58.219Z,45
2018-05-31T18:24:58.071Z,46
2018-05-31T18:29:58.147Z,46
2018-05-31T18:34:58.349Z,46
2018-05-31T18:39:58.118Z,46
2018-05-31T18:44:58.144Z,46
2018-05-31T18:49:57.972Z,47
2018-05-31T18:54:58.137Z,47
2018-05-31T18:59:57.948Z,48
2018-05-31T19:04:58.257Z,48
2018-05-31T19:09:58.147Z,48
2018-05-31T19:14:57.999Z,48
2018-05-31T19:19:58.212Z,48
2018-05-31T19:24:58.298Z,48
2018-05-31T19:29:58.221Z,47
2018-05-31T19:34:57.879Z,48
2018-05-31T19:39:57.929Z,49
2018-05-31T19:44:58.220Z,50
2018-05-31T19:49:58.081Z,50
2018-05-31T19:54:58.156Z,54
2018-05-31T19:59:57.944Z,55
2018-05-31T20:04:58.078Z,55
2018-05-31T20:09:57.848Z,56
2018-05-31T20:14:58.159Z,57
2018-05-31T20:19:57.871Z,57
2018-05-31T20:24:57.866Z,58
2018-05-31T20:29:57.880Z,58
2018-05-31T20:34:58.043Z,59
2018-05-31T20:39:57.833Z,59
2018-05-31T20:44:57.787Z,59
2018-05-31T20:49:57.925Z,60
2018-05-31T20:54:57.893Z,60
2018-05-31T20:59:57.960Z,60
2018-05-31T21:04:57.819Z,61
2018-05-31T21:09:57.777Z,61
2018-05-31T21:14:57.871Z,61
2018-05-31T21:19:58.013Z,61
2018-05-31T21:24:57.862Z,61
2018-05-31T21:29:57.848Z,62
2018-05-31T21:34:57.776Z,62
2018-05-31T21:39:57.767Z,63
2018-05-31T21:44:57.730Z,63
2018-05-31T21:49:57.681Z,63
2018-05-31T21:54:58.013Z,63
2018-05-31T21:59:57.661Z,64
2018-05-31T22:04:57.816Z,64
2018-05-31T22:09:57.970Z,64
2018-05-31T22:14:57.894Z,64
2018-05-31T22:19:57.889Z,65
2018-05-31T22:24:57.669Z,65
2018-05-31T22:29:57.646Z,65
2018-05-31T22:34:57.807Z,66
2018-05-31T22:39:57.902Z,66
2018-05-31T22:44:57.713Z,66
2018-05-31T22:49:57.911Z,66
2018-05-31T22:54:57.774Z,67
2018-05-31T22:59:57.893Z,67
2018-05-31T23:04:57.655Z,67
2018-05-31T23:09:57.709Z,67
2018-05-31T23:14:57.756Z,67
2018-05-31T23:19:57.639Z,68
2018-05-31T23:24:57.615Z,68
2018-05-31T23:29:57.788Z,69
2018-05-31T23:34:57.994Z,69
2018-05-31T23:39:57.870Z,69
2018-05-31T23:44:57.859Z,70
2018-05-31T23:49:57.630Z,70
2018-05-31T23:54:57.670Z,70
2018-05-31T23:59:57.520Z,70
